ウィーン の空港の天気 - METARとTAF

ウィーン国際空港 ( LOWW / VIE ) - オーストリア ウィーン
飛行場実況気象(Metar)
観測時間02/17 15:50 CET (02/17 14:50 UTC)
風向・風速南東 2m/s
視程10km以上
天気現象
なし
気温12℃
湿度54%
気圧1025hPa
METARLOWW 171450Z 14004KT 090V150 CAVOK 12/03 Q1025 NOSIG
過去の天気等 Google飛行場航空写真 Wunderground天気予報

過去48時間のMETAR

飛行場予報(TAF)
発表時間: 2/17 15:15 CET (2/17 14:15 UTC)
予報対象時間: 17日16時 CET ~ 18日22時 CET
風向・風速南東 2m/s
視程10km以上
なし
17日21時 CET ~ 17日23時 CET に徐々に
視程4000m
天気現象もや
なし
18日0時 CET ~ 18日3時 CET に徐々に
視程2000m
天気現象氷散在した霧
全天の4割程度の雲 雲底高度 60m
18日3時 CET ~ 18日5時 CET に徐々に
視程400m
天気現象氷霧
全天を覆う雲 鉛直視程 30m
18日11時 CET ~ 18日13時 CET に徐々に
風向・風速東南東 4m/s
視程7000m
天気現象運行に影響にある天気現象が終了
少しの雲 雲底高度 370m
TAF LOWW 171415Z 1715/1821 13004KT CAVOK TX12/1715Z TNM02/1806Z
BECMG 1720/1722 4000 BR NSC
BECMG 1723/1802 2000 FZBCFG SCT002
BECMG 1802/1804 0400 FZFG VV001
BECMG 1810/1812 12007KT 7000 NSW FEW012